Time;durP1;ratioP1;P1;durP2;ratioP2;P2;SDS_P1;SDS_P2;PMS_P1;PMS_P2;Temp;Humidity;BMP_temperature;BMP_pressure;BME280_temperature;BME280_humidity;BME280_pressure;Samples;Min_cycle;Max_cycle;Signal;HPM_P1;HPM_P2
2023/05/15 00:02:00;;;;;;;29.23;15.00;;;;;;;13.86;100.00;101390.81;5098987;28;20023;-79
2023/05/15 00:04:26;;;;;;;31.83;16.83;;;;;;;13.99;100.00;101386.50;5101188;28;20542;-79
2023/05/15 00:06:52;;;;;;;31.67;16.02;;;;;;;13.03;100.00;101380.66;5083990;28;20028;-79
2023/05/15 00:09:17;;;;;;;28.48;16.52;;;;;;;13.63;100.00;101385.38;5080733;28;20024;-79
2023/05/15 00:11:43;;;;;;;31.40;15.90;;;;;;;13.73;100.00;101376.22;5080949;28;20062;-79
2023/05/15 00:14:08;;;;;;;32.85;15.65;;;;;;;13.56;100.00;101372.03;5092011;28;20035;-79
2023/05/15 00:16:33;;;;;;;31.13;16.25;;;;;;;13.79;100.00;101373.88;5074687;28;20027;-79
2023/05/15 00:18:59;;;;;;;29.27;15.98;;;;;;;13.54;100.00;101357.56;5080621;28;20122;-79
2023/05/15 00:21:24;;;;;;;30.40;15.85;;;;;;;13.56;100.00;101357.19;5077299;28;20106;-79
2023/05/15 00:23:52;;;;;;;27.55;16.02;;;;;;;13.85;100.00;101360.22;5075790;28;20023;-79
2023/05/15 00:26:18;;;;;;;29.23;15.23;;;;;;;13.74;100.00;101354.50;5074938;28;20028;-79
2023/05/15 00:28:43;;;;;;;27.67;16.42;;;;;;;13.44;100.00;101352.63;5076921;28;20050;-79
2023/05/15 00:31:11;;;;;;;31.85;16.25;;;;;;;13.26;100.00;101340.34;5072425;28;20062;-79
2023/05/15 00:33:36;;;;;;;34.33;16.80;;;;;;;13.64;100.00;101350.44;5077956;28;20035;-79
2023/05/15 00:36:01;;;;;;;30.00;17.08;;;;;;;13.88;100.00;101360.28;5068333;28;20507;-79
2023/05/15 00:38:27;;;;;;;28.90;15.75;;;;;;;13.76;100.00;101346.50;5073696;28;20083;-79
2023/05/15 00:40:53;;;;;;;25.40;14.77;;;;;;;13.80;100.00;101352.97;5072175;28;20052;-78
2023/05/15 00:43:20;;;;;;;29.95;16.52;;;;;;;13.78;100.00;101356.16;5097560;28;20040;-79
2023/05/15 00:45:46;;;;;;;29.95;17.35;;;;;;;13.32;100.00;101350.09;5078961;28;20115;-79
2023/05/15 00:48:12;;;;;;;24.65;14.93;;;;;;;13.42;100.00;101349.41;5074517;28;20035;-80
2023/05/15 00:50:40;;;;;;;27.65;15.48;;;;;;;13.51;100.00;101355.50;5074928;28;20021;-80
2023/05/15 00:53:06;;;;;;;28.73;15.95;;;;;;;13.16;100.00;101348.28;5075993;28;20028;-80
2023/05/15 00:55:32;;;;;;;32.97;16.67;;;;;;;13.57;100.00;101353.97;5084257;28;20028;-80
2023/05/15 00:58:00;;;;;;;31.08;16.95;;;;;;;13.04;100.00;101339.31;5076725;28;20024;-80
2023/05/15 01:00:26;;;;;;;27.30;15.68;;;;;;;13.22;100.00;101335.50;5086159;28;20016;-80
2023/05/15 01:02:52;;;;;;;24.33;14.07;;;;;;;13.30;100.00;101335.59;5085075;27;20028;-79
2023/05/15 01:05:18;;;;;;;31.00;16.42;;;;;;;12.89;100.00;101339.13;5080291;28;20023;-79
2023/05/15 01:08:12;;;;;;;29.02;16.88;;;;;;;13.00;100.00;101336.47;5074587;28;20038;-79
2023/05/15 01:10:41;;;;;;;28.38;15.93;;;;;;;12.83;100.00;101337.84;5105391;28;20028;-79
2023/05/15 01:13:08;;;;;;;29.23;15.85;;;;;;;12.96;100.00;101325.16;5073813;28;20142;-79
2023/05/15 01:15:34;;;;;;;25.85;15.10;;;;;;;13.22;100.00;101334.72;5074444;28;20030;-79
2023/05/15 01:18:00;;;;;;;30.35;17.20;;;;;;;12.62;100.00;101324.34;5083784;28;20036;-79
2023/05/15 01:20:26;;;;;;;28.35;15.98;;;;;;;12.84;100.00;101331.06;5098139;28;20024;-79
2023/05/15 01:23:15;;;;;;;26.45;15.13;;;;;;;13.19;100.00;101324.22;5080071;28;20028;-79
2023/05/15 01:25:52;;;;;;;27.70;16.10;;;;;;;13.18;100.00;101317.78;5092357;28;20028;-79
2023/05/15 01:28:24;;;;;;;33.45;16.77;;;;;;;13.22;100.00;101329.09;5086221;28;20507;-79
2023/05/15 01:30:52;;;;;;;28.75;16.40;;;;;;;13.11;100.00;101325.34;5109964;28;20031;-79
2023/05/15 01:33:28;;;;;;;31.10;16.92;;;;;;;12.77;100.00;101319.72;5105444;28;20035;-79
2023/05/15 01:36:20;;;;;;;26.90;15.25;;;;;;;13.03;100.00;101324.47;5080945;28;20040;-79
2023/05/15 01:38:54;;;;;;;31.25;16.50;;;;;;;12.77;100.00;101326.13;5082691;28;20031;-79
2023/05/15 01:41:27;;;;;;;28.65;15.68;;;;;;;13.07;100.00;101330.94;5085088;28;20046;-79
2023/05/15 01:44:02;;;;;;;30.25;16.48;;;;;;;13.01;100.00;101319.22;5088420;28;20027;-79
2023/05/15 01:46:30;;;;;;;27.33;15.20;;;;;;;12.88;100.00;101317.88;5108821;28;20042;-79
2023/05/15 01:48:59;;;;;;;32.85;16.33;;;;;;;13.00;100.00;101323.19;5109020;28;20030;-79
2023/05/15 01:51:26;;;;;;;30.33;16.90;;;;;;;13.05;100.00;101319.28;5086598;28;20032;-79
2023/05/15 01:53:52;;;;;;;33.10;18.15;;;;;;;12.46;100.00;101330.16;5105138;27;20525;-80
2023/05/15 01:56:20;;;;;;;28.95;17.05;;;;;;;12.67;100.00;101324.03;5089271;28;20115;-79
2023/05/15 01:58:47;;;;;;;29.70;17.25;;;;;;;12.62;100.00;101324.34;5082855;28;20425;-79
2023/05/15 02:01:14;;;;;;;37.55;18.77;;;;;;;12.57;100.00;101322.69;5082570;28;20032;-79
2023/05/15 02:03:41;;;;;;;30.27;15.35;;;;;;;12.73;100.00;101319.69;5107826;28;20366;-79
2023/05/15 02:06:07;;;;;;;30.90;16.95;;;;;;;12.65;100.00;101323.59;5088002;28;20582;-79
2023/05/15 02:08:34;;;;;;;30.83;16.88;;;;;;;12.97;100.00;101324.00;5087011;28;20020;-79
2023/05/15 02:11:01;;;;;;;32.55;18.08;;;;;;;12.52;100.00;101323.03;5103299;28;20080;-79
2023/05/15 02:13:29;;;;;;;29.63;16.27;;;;;;;12.79;100.00;101312.53;5098281;28;20054;-79
2023/05/15 02:15:54;;;;;;;30.55;15.88;;;;;;;13.01;100.00;101313.59;5097361;27;20501;-79
2023/05/15 02:18:20;;;;;;;33.35;18.33;;;;;;;12.70;100.00;101317.63;5095286;28;20054;-79
2023/05/15 02:20:46;;;;;;;33.33;17.13;;;;;;;12.75;100.00;101306.06;5098969;28;20179;-79
2023/05/15 02:23:11;;;;;;;30.48;17.10;;;;;;;12.94;100.00;101312.69;5098507;28;20032;-79
2023/05/15 02:26:06;;;;;;;34.75;18.10;;;;;;;12.91;100.00;101307.84;5080457;28;20081;-79
2023/05/15 02:28:54;;;;;;;30.55;16.30;;;;;;;12.63;100.00;101295.09;5098711;28;20481;-79
2023/05/15 02:31:34;;;;;;;31.58;16.52;;;;;;;12.64;100.00;101301.50;5078933;28;20028;-79
2023/05/15 02:34:22;;;;;;;33.97;16.67;;;;;;;12.83;100.00;101301.34;5082397;28;20489;-79
2023/05/15 02:36:50;;;;;;;30.65;16.42;;;;;;;12.78;100.00;101305.31;5074259;28;20078;-79
2023/05/15 02:39:22;;;;;;;28.27;17.30;;;;;;;12.82;100.00;101294.13;5081232;28;20424;-79
2023/05/15 02:41:49;;;;;;;33.05;17.23;;;;;;;12.75;100.00;101294.00;5097290;28;20118;-79
2023/05/15 02:44:16;;;;;;;31.52;15.57;;;;;;;12.90;100.00;101292.19;5077945;28;20146;-79
2023/05/15 02:46:42;;;;;;;33.35;17.17;;;;;;;12.78;100.00;101291.25;5096248;27;20436;-79
2023/05/15 02:49:07;;;;;;;26.45;16.05;;;;;;;12.70;100.00;101297.97;5097779;28;20121;-79
2023/05/15 02:51:33;;;;;;;27.40;16.15;;;;;;;12.64;100.00;101288.28;5082964;28;20090;-79
2023/05/15 02:54:00;;;;;;;31.80;14.38;;;;;;;12.50;100.00;101288.06;5089958;28;20492;-78
2023/05/15 02:56:26;;;;;;;29.42;15.05;;;;;;;12.43;100.00;101316.06;5104108;28;20022;-79
2023/05/15 02:58:51;;;;;;;28.95;15.80;;;;;;;12.50;100.00;101304.94;5088653;28;20027;-79
2023/05/15 03:01:17;;;;;;;28.05;15.52;;;;;;;12.51;100.00;101300.94;5100633;28;20027;-79
2023/05/15 03:03:42;;;;;;;29.92;15.23;;;;;;;12.57;100.00;101316.28;5111723;27;20050;-79
2023/05/15 03:06:09;;;;;;;24.45;14.50;;;;;;;12.47;100.00;101314.94;5101035;28;20031;-79
2023/05/15 03:08:35;;;;;;;31.17;16.70;;;;;;;12.56;100.00;101326.66;5103844;28;20050;-79
2023/05/15 03:11:00;;;;;;;31.52;16.67;;;;;;;11.93;100.00;101336.59;5102981;27;22836;-79
2023/05/15 03:13:25;;;;;;;27.27;15.18;;;;;;;12.28;100.00;101327.09;5105339;28;20049;-79
2023/05/15 03:15:52;;;;;;;25.60;14.88;;;;;;;12.18;100.00;101337.00;5088196;28;20026;-79
2023/05/15 03:18:18;;;;;;;30.35;16.02;;;;;;;11.67;100.00;101330.91;5095302;27;20058;-79
2023/05/15 03:20:43;;;;;;;26.33;14.80;;;;;;;11.84;100.00;101318.38;5104508;28;20080;-80
2023/05/15 03:23:09;;;;;;;25.75;15.32;;;;;;;11.95;100.00;101323.00;5080165;28;20394;-79
2023/05/15 03:25:34;;;;;;;26.92;15.50;;;;;;;11.62;100.00;101329.22;5083650;28;20537;-79
2023/05/15 03:27:59;;;;;;;28.02;16.15;;;;;;;11.80;100.00;101330.34;5075273;28;20105;-79
2023/05/15 03:30:25;;;;;;;26.40;15.05;;;;;;;11.83;100.00;101328.78;5101897;28;20448;-79
2023/05/15 03:32:50;;;;;;;24.70;14.40;;;;;;;12.02;100.00;101324.28;5098124;27;20035;-79
2023/05/15 03:35:16;;;;;;;32.25;15.38;;;;;;;11.70;100.00;101324.53;5074728;28;20035;-79
2023/05/15 03:37:41;;;;;;;26.40;14.85;;;;;;;12.10;100.00;101321.22;5099266;28;20031;-79
2023/05/15 03:40:07;;;;;;;29.92;15.55;;;;;;;11.94;100.00;101312.16;5082816;28;20032;-79
2023/05/15 03:42:32;;;;;;;26.90;14.63;;;;;;;11.60;100.00;101318.38;5094677;28;20035;-79
2023/05/15 03:44:58;;;;;;;29.02;15.40;;;;;;;11.76;100.00;101314.63;5103111;28;20038;-79
2023/05/15 03:47:23;;;;;;;29.13;15.55;;;;;;;11.88;100.00;101314.47;5080642;28;20458;-79
2023/05/15 03:49:49;;;;;;;27.70;14.00;;;;;;;12.14;100.00;101310.88;5081537;28;20085;-79
2023/05/15 03:52:14;;;;;;;30.50;15.38;;;;;;;12.08;100.00;101301.16;5096505;28;20036;-79
2023/05/15 03:54:41;;;;;;;26.98;14.85;;;;;;;12.16;100.00;101308.50;5082531;28;20023;-79
2023/05/15 03:57:06;;;;;;;29.10;14.43;;;;;;;12.23;100.00;101307.78;5102468;28;20036;-79
2023/05/15 03:59:32;;;;;;;28.02;14.55;;;;;;;11.99;100.00;101309.00;5103900;28;20084;-79
2023/05/15 04:01:58;;;;;;;26.17;14.73;;;;;;;11.87;100.00;101307.22;5090152;28;20536;-79
2023/05/15 04:04:23;;;;;;;26.35;14.65;;;;;;;11.80;100.00;101307.09;5081960;28;20023;-79
2023/05/15 04:06:50;;;;;;;25.95;13.70;;;;;;;11.79;100.00;101299.88;5083624;28;20028;-79
2023/05/15 04:09:15;;;;;;;29.90;15.52;;;;;;;11.64;100.00;101314.81;5098594;28;20062;-79
2023/05/15 04:11:40;;;;;;;31.52;16.45;;;;;;;11.56;100.00;101297.88;5079823;28;20169;-79
2023/05/15 04:14:06;;;;;;;25.70;14.85;;;;;;;12.04;100.00;101300.28;5077221;28;20035;-79
2023/05/15 04:16:31;;;;;;;27.00;15.13;;;;;;;12.09;100.00;101291.53;5053723;28;20031;-79
2023/05/15 04:18:56;;;;;;;31.60;16.33;;;;;;;12.19;100.00;101292.88;5092047;28;20031;-79
2023/05/15 04:21:22;;;;;;;30.30;15.95;;;;;;;12.18;100.00;101294.06;5087953;28;20035;-80
2023/05/15 04:23:47;;;;;;;22.55;13.15;;;;;;;12.03;100.00;101297.84;5089460;28;20027;-79
2023/05/15 04:26:12;;;;;;;26.23;14.77;;;;;;;11.97;100.00;101300.16;5094795;28;20417;-79
2023/05/15 04:28:38;;;;;;;29.30;15.00;;;;;;;12.10;100.00;101298.78;5076354;28;20408;-79
2023/05/15 04:31:03;;;;;;;27.75;15.27;;;;;;;11.98;100.00;101299.78;5082412;28;20118;-79
2023/05/15 04:33:28;;;;;;;21.80;13.05;;;;;;;11.85;100.00;101298.38;5089737;28;20023;-79
2023/05/15 04:35:54;;;;;;;28.92;14.65;;;;;;;11.92;100.00;101297.69;5097465;28;20103;-79
2023/05/15 04:38:19;;;;;;;25.55;14.65;;;;;;;11.97;100.00;101322.59;5094397;28;20034;-79
2023/05/15 04:40:45;;;;;;;26.25;14.13;;;;;;;12.23;100.00;101310.59;5096219;28;20109;-79
2023/05/15 04:43:10;;;;;;;25.55;13.18;;;;;;;12.27;100.00;101302.19;5099145;28;20129;-78
2023/05/15 04:45:36;;;;;;;22.95;13.32;;;;;;;12.28;100.00;101293.41;5070574;28;20028;-79
2023/05/15 04:48:01;;;;;;;27.42;15.35;;;;;;;12.01;100.00;101289.81;5074004;28;20031;-79
2023/05/15 04:50:27;;;;;;;29.50;14.32;;;;;;;12.29;100.00;101302.63;5094165;28;20024;-79
2023/05/15 04:52:53;;;;;;;25.45;14.45;;;;;;;12.34;100.00;101314.34;5091106;28;21729;-79
2023/05/15 04:55:18;;;;;;;28.02;14.77;;;;;;;12.35;100.00;101310.38;5095135;28;20513;-79
2023/05/15 04:57:45;;;;;;;25.67;14.55;;;;;;;12.02;100.00;101319.50;5097248;28;20027;-79
2023/05/15 05:00:11;;;;;;;27.08;14.57;;;;;;;11.99;100.00;101317.44;5096559;28;20539;-78
2023/05/15 05:02:42;;;;;;;22.70;13.02;;;;;;;12.28;100.00;101324.28;5076131;28;20057;-79
2023/05/15 05:05:08;;;;;;;24.73;13.55;;;;;;;12.27;100.00;101324.66;5071560;28;20039;-79
2023/05/15 05:07:34;;;;;;;25.65;13.35;;;;;;;11.67;100.00;101340.13;5093605;28;20032;-78
2023/05/15 05:10:00;;;;;;;26.70;13.00;;;;;;;12.06;100.00;101336.38;5101815;28;20051;-78
2023/05/15 05:12:26;;;;;;;25.67;14.90;;;;;;;12.07;100.00;101338.00;5073381;28;20603;-79
2023/05/15 05:14:51;;;;;;;20.70;12.18;;;;;;;12.03;100.00;101337.13;5090917;28;20036;-78
2023/05/15 05:17:17;;;;;;;22.35;11.88;;;;;;;11.90;100.00;101344.94;5069501;28;20113;-78
2023/05/15 05:19:42;;;;;;;23.50;13.43;;;;;;;11.84;100.00;101341.59;5095604;28;20030;-79
2023/05/15 05:22:08;;;;;;;21.25;13.75;;;;;;;12.22;100.00;101339.03;5093922;28;20554;-79
2023/05/15 05:24:37;;;;;;;21.65;13.20;;;;;;;12.25;100.00;101344.69;5089559;28;20500;-78
2023/05/15 05:27:05;;;;;;;24.98;15.15;;;;;;;12.03;100.00;101339.94;5074620;28;20028;-79
2023/05/15 05:29:34;;;;;;;24.38;14.30;;;;;;;11.87;100.00;101335.25;5073840;28;20473;-79
2023/05/15 05:32:00;;;;;;;24.98;14.77;;;;;;;11.99;100.00;101329.47;5071389;28;20028;-80
2023/05/15 05:34:25;;;;;;;25.17;14.30;;;;;;;12.04;100.00;101333.13;5078245;28;20036;-79
2023/05/15 05:36:50;;;;;;;26.13;14.00;;;;;;;11.81;100.00;101331.16;5090359;28;20031;-79
2023/05/15 05:39:16;;;;;;;28.65;14.73;;;;;;;12.25;100.00;101341.06;5069412;28;20117;-79
2023/05/15 05:41:42;;;;;;;27.33;14.23;;;;;;;12.07;100.00;101332.38;5093240;28;20030;-80
2023/05/15 05:44:08;;;;;;;27.05;13.73;;;;;;;12.25;100.00;101327.88;5077776;28;20488;-79
2023/05/15 05:46:35;;;;;;;26.17;13.77;;;;;;;12.23;100.00;101330.25;5077737;27;20028;-80
2023/05/15 05:49:01;;;;;;;25.88;14.50;;;;;;;12.15;100.00;101334.13;5079749;28;20024;-79
2023/05/15 05:51:26;;;;;;;25.17;13.25;;;;;;;12.13;100.00;101330.88;5081780;28;20047;-79
2023/05/15 05:53:52;;;;;;;27.52;14.65;;;;;;;12.17;100.00;101334.56;5076545;28;20028;-79
2023/05/15 05:56:17;;;;;;;27.40;15.27;;;;;;;12.16;100.00;101330.13;5086830;27;20084;-79
2023/05/15 05:58:43;;;;;;;26.23;13.95;;;;;;;12.34;100.00;101336.00;5101020;27;20107;-79
2023/05/15 06:01:08;;;;;;;28.83;16.20;;;;;;;12.12;100.00;101334.88;5094127;27;20437;-79
2023/05/15 06:03:34;;;;;;;30.48;15.02;;;;;;;13.18;100.00;101329.03;5072131;28;20031;-78
2023/05/15 06:05:59;;;;;;;26.15;13.65;;;;;;;13.71;100.00;101332.81;5079705;28;20473;-78
2023/05/15 06:08:25;;;;;;;25.27;13.40;;;;;;;13.96;100.00;101322.56;5082700;28;20023;-77
2023/05/15 06:10:50;;;;;;;29.42;14.55;;;;;;;13.88;100.00;101336.97;5096687;27;20411;-77
2023/05/15 06:13:16;;;;;;;32.97;15.05;;;;;;;14.19;100.00;101327.16;5100946;28;20046;-77
2023/05/15 06:15:43;;;;;;;25.63;14.43;;;;;;;14.03;100.00;101339.47;5099026;28;20111;-78
2023/05/15 06:18:09;;;;;;;27.67;14.07;;;;;;;14.11;100.00;101336.75;5107333;28;20037;-77
2023/05/15 06:20:34;;;;;;;19.77;13.07;;;;;;;14.05;100.00;101327.03;5084692;28;20027;-77
2023/05/15 06:23:00;;;;;;;24.70;14.98;;;;;;;14.20;100.00;101326.72;5095031;28;20465;-77
2023/05/15 06:25:25;;;;;;;26.98;14.38;;;;;;;14.14;100.00;101327.50;5079385;28;20469;-77
2023/05/15 06:27:50;;;;;;;22.05;12.63;;;;;;;14.56;100.00;101329.00;5087816;28;20027;-78
2023/05/15 06:30:16;;;;;;;25.33;13.02;;;;;;;14.14;100.00;101333.13;5083228;28;20039;-76
2023/05/15 06:32:41;;;;;;;27.35;14.32;;;;;;;14.59;100.00;101325.41;5089366;28;20131;-77
2023/05/15 06:35:08;;;;;;;31.52;14.48;;;;;;;14.10;100.00;101319.00;5097742;28;20073;-77
2023/05/15 06:37:35;;;;;;;23.77;13.30;;;;;;;14.73;100.00;101324.63;5080008;28;20055;-77
2023/05/15 06:40:01;;;;;;;25.27;14.07;;;;;;;14.40;100.00;101327.28;5092633;28;20871;-76
2023/05/15 06:42:27;;;;;;;27.33;13.65;;;;;;;14.33;100.00;101320.78;5085227;28;20066;-78
2023/05/15 06:44:52;;;;;;;24.52;14.40;;;;;;;13.82;100.00;101326.06;5099885;28;20031;-78
2023/05/15 06:47:17;;;;;;;25.75;14.73;;;;;;;13.61;100.00;101323.06;5085260;28;20045;-78
2023/05/15 06:49:42;;;;;;;24.73;15.38;;;;;;;13.63;100.00;101321.47;5100528;28;20031;-78
2023/05/15 06:52:08;;;;;;;22.58;13.07;;;;;;;13.46;100.00;101326.94;5082157;28;20374;-78
2023/05/15 06:54:33;;;;;;;25.05;14.15;;;;;;;13.39;100.00;101322.06;5091756;28;20444;-78
2023/05/15 06:56:59;;;;;;;26.38;14.55;;;;;;;13.38;100.00;101331.69;5079566;28;20266;-77
2023/05/15 06:59:24;;;;;;;24.00;13.30;;;;;;;13.25;100.00;101328.31;5108208;27;20335;-78
2023/05/15 07:01:49;;;;;;;23.67;14.20;;;;;;;13.19;100.00;101313.78;5099325;27;20341;-77
2023/05/15 07:04:15;;;;;;;26.27;15.82;;;;;;;13.34;100.00;101323.19;5109744;27;20400;-77
2023/05/15 07:06:40;;;;;;;24.95;13.65;;;;;;;13.37;100.00;101319.63;5084261;28;20027;-77
2023/05/15 07:09:06;;;;;;;23.73;13.80;;;;;;;13.38;100.00;101323.25;5101680;28;20038;-78
2023/05/15 07:11:32;;;;;;;27.35;15.05;;;;;;;13.11;100.00;101316.91;5095821;28;20032;-77
2023/05/15 07:13:57;;;;;;;29.55;16.95;;;;;;;13.23;100.00;101325.88;5083899;27;20058;-78
2023/05/15 07:16:23;;;;;;;25.60;14.85;;;;;;;13.18;100.00;101320.59;5077688;28;20114;-77
2023/05/15 07:18:48;;;;;;;26.42;14.98;;;;;;;13.41;100.00;101325.28;5081335;28;20027;-78
2023/05/15 07:21:13;;;;;;;26.95;15.52;;;;;;;13.44;100.00;101318.09;5079613;27;20051;-78
2023/05/15 07:23:39;;;;;;;28.23;15.65;;;;;;;13.63;100.00;101315.84;5098698;27;20124;-78
2023/05/15 07:26:04;;;;;;;31.15;15.45;;;;;;;13.51;100.00;101330.19;5103055;27;20034;-78
2023/05/15 07:28:29;;;;;;;25.02;14.70;;;;;;;13.53;100.00;101322.19;5083473;28;20058;-78
2023/05/15 07:30:55;;;;;;;25.48;15.70;;;;;;;13.20;100.00;101309.78;5094597;28;20028;-78
2023/05/15 07:33:20;;;;;;;31.98;16.63;;;;;;;13.42;100.00;101321.28;5097019;28;20164;-77
2023/05/15 07:35:45;;;;;;;28.42;15.30;;;;;;;13.47;100.00;101312.50;5079652;27;20177;-78
2023/05/15 07:38:11;;;;;;;29.25;15.32;;;;;;;13.86;100.00;101319.66;5100926;27;20536;-78
2023/05/15 07:40:36;;;;;;;26.75;15.15;;;;;;;13.92;100.00;101318.09;5079500;28;20067;-78
2023/05/15 07:43:02;;;;;;;27.60;14.73;;;;;;;14.03;100.00;101316.16;5081547;28;20032;-78
2023/05/15 07:45:27;;;;;;;27.08;15.88;;;;;;;14.04;100.00;101309.34;5081594;28;20039;-78
2023/05/15 07:47:57;;;;;;;28.10;16.25;;;;;;;14.05;100.00;101324.22;5074162;28;20429;-78
2023/05/15 07:50:23;;;;;;;27.13;15.75;;;;;;;14.02;100.00;101325.81;5080080;28;20036;-78
2023/05/15 07:52:48;;;;;;;29.58;16.90;;;;;;;13.92;100.00;101327.34;5085580;28;20088;-77
2023/05/15 07:55:13;;;;;;;27.10;16.63;;;;;;;13.87;100.00;101327.72;5072453;28;20032;-77
2023/05/15 07:57:39;;;;;;;31.48;15.90;;;;;;;13.73;100.00;101330.41;5076090;28;20374;-78
2023/05/15 08:00:09;;;;;;;32.38;17.08;;;;;;;13.77;100.00;101317.97;5079385;28;20089;-77
2023/05/15 08:02:35;;;;;;;30.30;16.23;;;;;;;13.83;100.00;101324.88;5070658;28;20119;-78
2023/05/15 08:05:00;;;;;;;26.85;15.43;;;;;;;13.80;100.00;101322.81;5093194;28;20569;-78
2023/05/15 08:07:26;;;;;;;28.90;15.57;;;;;;;13.80;100.00;101324.81;5074177;28;20031;-78
2023/05/15 08:09:51;;;;;;;28.85;17.30;;;;;;;13.95;100.00;101317.31;5072943;28;20036;-78
2023/05/15 08:12:21;;;;;;;29.23;16.58;;;;;;;13.92;100.00;101315.28;5071191;28;20035;-77
2023/05/15 08:14:53;;;;;;;30.27;15.85;;;;;;;14.07;100.00;101321.81;5077060;28;20472;-77
2023/05/15 08:17:19;;;;;;;;;;;;;;;14.10;100.00;101321.84;5078424;28;20032;-78
2023/05/15 08:19:45;;;;;;;27.15;15.38;;;;;;;14.20;100.00;101309.03;5074884;28;19942;-78
2023/05/15 08:22:10;;;;;;;27.75;15.85;;;;;;;14.16;100.00;101319.47;5074487;28;20063;-78
2023/05/15 08:24:36;;;;;;;29.95;15.48;;;;;;;14.30;99.82;101318.75;5072410;28;20028;-78
2023/05/15 08:27:04;;;;;;;28.33;16.20;;;;;;;14.47;99.42;101318.06;5074345;28;20437;-78
2023/05/15 08:29:29;;;;;;;27.50;15.80;;;;;;;14.54;99.14;101314.47;5077369;28;20064;-78
2023/05/15 08:31:54;;;;;;;30.38;16.75;;;;;;;14.56;99.37;101306.44;5071799;28;20136;-77
2023/05/15 08:34:20;;;;;;;26.63;16.58;;;;;;;14.67;99.63;101310.13;5076485;28;20031;-78
2023/05/15 08:36:45;;;;;;;30.35;17.20;;;;;;;14.67;99.36;101315.75;5072647;28;20028;-78
2023/05/15 08:39:11;;;;;;;29.75;16.35;;;;;;;14.65;99.47;101309.69;5076004;28;20482;-78
2023/05/15 08:42:04;;;;;;;30.23;17.05;;;;;;;14.69;99.51;101307.72;5090020;28;20078;-78
2023/05/15 08:44:29;;;;;;;33.10;18.02;;;;;;;14.50;100.00;101299.53;5093714;28;20517;-78
2023/05/15 08:46:56;;;;;;;29.58;17.42;;;;;;;14.64;100.00;101294.81;5093745;28;20028;-78
2023/05/15 08:49:59;;;;;;;29.90;17.48;;;;;;;14.57;100.00;101308.09;5076258;28;20549;-78
2023/05/15 08:52:25;;;;;;;30.58;17.92;;;;;;;14.79;99.47;101301.31;5083935;28;20039;-78
2023/05/15 08:54:51;;;;;;;31.38;18.27;;;;;;;15.04;98.37;101309.06;5093512;28;20043;-78
2023/05/15 08:57:17;;;;;;;33.10;19.20;;;;;;;15.14;96.73;101305.47;5104238;28;20028;-78
2023/05/15 08:59:42;;;;;;;27.10;16.05;;;;;;;15.00;98.41;101311.06;5080466;28;20028;-78
2023/05/15 09:02:08;;;;;;;29.52;18.30;;;;;;;14.84;98.95;101303.78;5103671;28;20468;-78
2023/05/15 09:04:33;;;;;;;29.88;17.83;;;;;;;15.02;99.93;101305.81;5078868;28;20121;-77
2023/05/15 09:07:00;;;;;;;31.98;19.25;;;;;;;15.06;97.82;101309.47;5096836;28;20045;-77
2023/05/15 09:09:27;;;;;;;29.25;17.83;;;;;;;15.29;97.43;101311.13;5078799;28;20020;-78
2023/05/15 09:11:52;;;;;;;33.75;19.95;;;;;;;15.20;97.66;101291.75;5084995;28;20027;-77
2023/05/15 09:14:18;;;;;;;36.58;19.98;;;;;;;15.01;100.00;101298.56;5100989;28;20053;-78
2023/05/15 09:16:45;;;;;;;31.42;17.75;;;;;;;15.44;96.80;101298.66;5076593;28;20032;-78
2023/05/15 09:19:12;;;;;;;31.58;18.00;;;;;;;15.54;99.40;101302.72;5097835;28;20419;-78
2023/05/15 09:21:38;;;;;;;29.08;18.05;;;;;;;15.43;97.86;101306.31;5101847;28;20112;-78
2023/05/15 09:24:36;;;;;;;29.13;16.95;;;;;;;15.47;99.58;101306.31;5102640;28;20155;-78
2023/05/15 09:27:03;;;;;;;35.58;17.88;;;;;;;15.73;100.00;101298.72;5081958;28;20118;-78
2023/05/15 09:29:30;;;;;;;33.45;18.95;;;;;;;15.69;99.35;101300.69;5083419;28;20023;-78
2023/05/15 09:31:56;;;;;;;26.60;17.05;;;;;;;15.65;99.11;101303.50;5081699;28;20061;-78
2023/05/15 09:34:36;;;;;;;31.42;17.13;;;;;;;15.77;98.00;101305.97;5094836;28;21569;-78
2023/05/15 09:37:04;;;;;;;29.60;17.35;;;;;;;15.67;99.96;101303.13;5074602;28;20020;-78
2023/05/15 09:39:30;;;;;;;31.33;18.80;;;;;;;16.02;96.00;101305.13;5090775;27;20043;-78
2023/05/15 09:42:09;;;;;;;29.67;17.35;;;;;;;16.19;95.35;101309.13;5109673;27;20433;-78
2023/05/15 09:44:39;;;;;;;29.05;18.02;;;;;;;15.98;95.03;101302.31;5101929;27;20058;-78
2023/05/15 09:47:04;;;;;;;32.65;18.98;;;;;;;16.14;94.53;101310.34;5084312;28;20526;-78
2023/05/15 09:49:30;;;;;;;26.42;16.40;;;;;;;16.28;92.70;101301.06;5077278;28;20028;-78
2023/05/15 09:52:00;;;;;;;30.67;17.08;;;;;;;16.05;95.27;101312.81;5099380;28;20016;-78
2023/05/15 09:54:29;;;;;;;30.60;19.25;;;;;;;15.87;96.87;101301.50;5081083;28;20046;-78
2023/05/15 09:56:54;;;;;;;29.10;18.13;;;;;;;16.00;94.58;101294.25;5082997;27;20020;-78
2023/05/15 09:59:20;;;;;;;29.60;17.05;;;;;;;16.37;94.31;101295.78;5086463;28;20027;-78
2023/05/15 10:01:48;;;;;;;24.35;16.00;;;;;;;16.30;91.66;101301.47;5108263;27;20020;-77
2023/05/15 10:04:13;;;;;;;30.60;18.08;;;;;;;16.46;92.18;101301.81;5107515;27;20049;-77
2023/05/15 10:06:48;;;;;;;27.02;16.45;;;;;;;16.42;91.27;101292.56;5102881;27;20031;-77
2023/05/15 10:09:14;;;;;;;28.95;17.70;;;;;;;16.46;92.24;101301.00;5099766;27;20381;-78
2023/05/15 10:11:48;;;;;;;30.23;17.38;;;;;;;16.40;92.67;101308.28;5097821;28;20030;-77
2023/05/15 10:14:15;;;;;;;27.67;16.98;;;;;;;16.55;91.61;101303.38;5093846;28;20533;-78
2023/05/15 10:16:41;;;;;;;25.70;15.90;;;;;;;16.75;90.97;101304.53;5099338;28;20085;-77
2023/05/15 10:19:08;;;;;;;24.90;14.38;;;;;;;17.09;90.32;101303.19;5100952;27;20035;-77
2023/05/15 10:21:36;;;;;;;21.58;14.38;;;;;;;16.83;91.16;101320.28;5099561;28;20496;-77
2023/05/15 10:24:03;;;;;;;22.27;15.07;;;;;;;16.94;88.52;101310.94;5075546;28;20027;-77
2023/05/15 10:26:41;;;;;;;21.65;13.95;;;;;;;17.14;86.60;101308.41;5095221;27;20105;-77
2023/05/15 10:29:11;;;;;;;22.80;15.25;;;;;;;16.59;90.35;101305.00;5067992;28;21273;-78
2023/05/15 10:31:38;;;;;;;22.90;13.13;;;;;;;16.99;90.67;101314.16;5076147;28;20131;-77
2023/05/15 10:34:05;;;;;;;21.92;14.23;;;;;;;17.16;88.99;101317.28;5070762;28;20126;-77
2023/05/15 10:36:31;;;;;;;23.48;15.07;;;;;;;16.85;91.58;101309.38;5096132;27;20385;-77
2023/05/15 10:38:59;;;;;;;21.85;13.27;;;;;;;16.64;90.86;101320.72;5103106;27;20511;-77
2023/05/15 10:41:27;;;;;;;19.23;13.18;;;;;;;16.33;90.25;101317.59;5100198;28;20032;-77
2023/05/15 10:43:54;;;;;;;16.60;12.43;;;;;;;16.59;88.83;101318.31;5102254;27;20035;-77
2023/05/15 10:46:20;;;;;;;18.77;12.50;;;;;;;16.50;89.72;101315.13;5080330;28;20032;-77
2023/05/15 10:48:46;;;;;;;18.08;11.25;;;;;;;16.96;86.56;101308.50;5077794;28;20032;-77
2023/05/15 10:51:23;;;;;;;16.85;11.32;;;;;;;17.03;89.15;101312.13;5095610;28;20039;-77
2023/05/15 10:53:50;;;;;;;17.90;11.57;;;;;;;17.08;84.33;101305.22;5091933;27;20386;-77
2023/05/15 10:56:15;;;;;;;16.45;9.65;;;;;;;17.30;82.79;101316.41;5091903;27;20031;-77
2023/05/15 10:58:54;;;;;;;11.82;8.30;;;;;;;17.83;84.38;101309.56;5096082;28;20523;-76
2023/05/15 11:01:30;;;;;;;13.95;9.90;;;;;;;17.24;82.29;101313.19;5072819;28;20024;-77
2023/05/15 11:04:06;;;;;;;12.23;8.93;;;;;;;17.62;84.96;101302.00;5073568;28;20031;-77
2023/05/15 11:06:32;;;;;;;14.93;8.25;;;;;;;18.04;81.99;101300.84;5092126;28;20031;-77